PWSweather.com
Personal Weather Stations
Station Observations
UWIDEPER1
Brown County, Depere, WI 54115

Brown CountyDepere, WI 54115

Lat: 44.44, Lon: -88.05

Elevation: 610

Station Type: Acurite 5in1

Latest ConditionsUpdated 2:15:01 AM CST Monday, Nov 19, 2018
Currently Today's Max Today's Min Today's Average
Temperature 25.2°F-3.8°C 26.6°F-3.0°C 25.2°F-3.8°C 25.8°F-3.4°C
Dew Point 16.7°F-8.5°C 17.3°F-8.2°C 16.1°F-8.8°C 16.7°F-8.5°C
Winds 3.5 mph SW5.6 kmh SW 5.8 mph -9.3 kmh - - 4.1 mph 6.6 kmh
Wind Gusts 4.6 mph7.4 kmh 9.2 mph14.8 kmh - -
Humidity 70% 70% 65% 68%
Pressure 30.08 in1018.6 mb 30.10 in1019.3 mb 30.08 in1018.6 mb -
Hour Temp Dew Point Humidity Winds Wind Gusts Pressure Precip Precip Rate Daily Precip Total
02:15 AM 25.2°F-3.8°C 16.7°F-8.5°C 70% 3.5 mph SW5.6 kmh SW 4.6 mph7.4 kmh 30.08 in1018.6 mb - 0.00 in0.0 mm 0.00 in0.0 mm
02:10 AM 25.2°F-3.8°C 16.7°F-8.5°C 70% 3.5 mph SW5.6 kmh SW 5.8 mph9.3 kmh 30.09 in1019.0 mb - 0.00 in0.0 mm 0.00 in0.0 mm
02:00 AM 25.2°F-3.8°C 16.7°F-8.5°C 70% 3.5 mph WSW5.6 kmh WSW 3.5 mph5.6 kmh 30.08 in1018.6 mb - 0.00 in0.0 mm 0.00 in0.0 mm
01:55 AM 25.2°F-3.8°C 16.7°F-8.5°C 70% 2.3 mph WSW3.7 kmh WSW 3.5 mph5.6 kmh 30.09 in1019.0 mb - 0.00 in0.0 mm 0.00 in0.0 mm
01:50 AM 25.3°F-3.7°C 16.9°F-8.4°C 70% 3.5 mph SW5.6 kmh SW 3.5 mph5.6 kmh 30.08 in1018.6 mb - 0.00 in0.0 mm 0.00 in0.0 mm
01:45 AM 25.3°F-3.7°C 16.9°F-8.4°C 70% 3.5 mph SSE5.6 kmh SSE 3.5 mph5.6 kmh 30.08 in1018.6 mb - 0.00 in0.0 mm 0.00 in0.0 mm
01:40 AM 25.3°F-3.7°C 16.9°F-8.4°C 70% 4.6 mph SW7.4 kmh SW 5.8 mph9.3 kmh 30.08 in1018.6 mb - 0.00 in0.0 mm 0.00 in0.0 mm
01:35 AM 25.7°F-3.5°C 17.3°F-8.2°C 70% 3.5 mph SW5.6 kmh SW 3.5 mph5.6 kmh 30.08 in1018.6 mb - 0.00 in0.0 mm 0.00 in0.0 mm
01:30 AM 25.7°F-3.5°C 16.9°F-8.4°C 69% 3.5 mph SW5.6 kmh SW 3.5 mph5.6 kmh 30.09 in1019.0 mb - 0.00 in0.0 mm 0.00 in0.0 mm
01:25 AM 25.7°F-3.5°C 17.0°F-8.3°C 69% 3.5 mph SSW5.6 kmh SSW 3.5 mph5.6 kmh 30.08 in1018.6 mb - 0.00 in0.0 mm 0.00 in0.0 mm
01:20 AM 25.9°F-3.4°C 17.1°F-8.3°C 69% 3.5 mph SSW5.6 kmh SSW 5.8 mph9.3 kmh 30.08 in1018.6 mb - 0.00 in0.0 mm 0.00 in0.0 mm
01:15 AM 25.9°F-3.4°C 17.1°F-8.3°C 69% 3.5 mph WSW5.6 kmh WSW 3.5 mph5.6 kmh 30.08 in1018.6 mb - 0.00 in0.0 mm 0.00 in0.0 mm
01:10 AM 25.9°F-3.4°C 17.1°F-8.3°C 69% 3.5 mph E5.6 kmh E 3.5 mph5.6 kmh 30.09 in1019.0 mb - 0.00 in0.0 mm 0.00 in0.0 mm
01:00 AM 25.9°F-3.4°C 16.8°F-8.4°C 68% 3.5 mph WSW5.6 kmh WSW 5.8 mph9.3 kmh 30.09 in1019.0 mb - 0.00 in0.0 mm 0.00 in0.0 mm
12:55 AM 26.1°F-3.3°C 16.9°F-8.4°C 68% 4.6 mph SW7.4 kmh SW 5.8 mph9.3 kmh 30.09 in1019.0 mb - 0.00 in0.0 mm 0.00 in0.0 mm
12:50 AM 26.1°F-3.3°C 16.9°F-8.4°C 68% 4.6 mph SSW7.4 kmh SSW 8.1 mph13.0 kmh 30.08 in1018.6 mb - 0.00 in0.0 mm 0.00 in0.0 mm
12:45 AM 26.1°F-3.3°C 16.2°F-8.8°C 66% 5.8 mph SSW9.3 kmh SSW 3.5 mph5.6 kmh 30.09 in1019.0 mb - 0.00 in0.0 mm 0.00 in0.0 mm
12:40 AM 26.2°F-3.2°C 16.4°F-8.7°C 66% 3.5 mph E5.6 kmh E 3.5 mph5.6 kmh 30.09 in1019.0 mb - 0.00 in0.0 mm 0.00 in0.0 mm
12:35 AM 26.2°F-3.2°C 16.4°F-8.7°C 66% 4.6 mph SSW7.4 kmh SSW 5.8 mph9.3 kmh 30.10 in1019.3 mb - 0.00 in0.0 mm 0.00 in0.0 mm
12:30 AM 26.2°F-3.2°C 16.4°F-8.7°C 66% 4.6 mph SW7.4 kmh SW 5.8 mph9.3 kmh 30.10 in1019.3 mb - 0.00 in0.0 mm 0.00 in0.0 mm
12:25 AM 26.2°F-3.2°C 16.1°F-8.8°C 65% 5.8 mph SSW9.3 kmh SSW 6.9 mph11.1 kmh 30.10 in1019.3 mb - 0.00 in0.0 mm 0.00 in0.0 mm
12:20 AM 26.2°F-3.2°C 16.1°F-8.8°C 65% 5.8 mph S9.3 kmh S 6.9 mph11.1 kmh 30.10 in1019.3 mb - 0.00 in0.0 mm 0.00 in0.0 mm
12:15 AM 26.2°F-3.2°C 16.1°F-8.8°C 65% 5.8 mph W9.3 kmh W 9.2 mph14.8 kmh 30.09 in1019.0 mb - 0.00 in0.0 mm 0.00 in0.0 mm
12:10 AM 26.2°F-3.2°C 16.1°F-8.8°C 65% 4.6 mph W7.4 kmh W 8.1 mph13.0 kmh 30.10 in1019.3 mb - 0.00 in0.0 mm 0.00 in0.0 mm
12:00 AM 26.6°F-3.0°C 16.8°F-8.4°C 66% 4.6 mph SSW7.4 kmh SSW 4.6 mph7.4 kmh 30.10 in1019.3 mb - 0.00 in0.0 mm 0.00 in0.0 mm